Pine, Colorado
Current Conditions -  °F | °C
As of 12:54 AM on Saturday 20 Dec 2014 (Local Time) from K4BM Reporting Station
Scattered Clouds Scattered Clouds  
Wind Chill:   Ceiling: Unl
Heat Index: 21°   Visibility: 10mi
Dew Point:   Wind: 12mph
Humidity: 58%   Direction: 300°WNW
Pressure: 30.09"   Gusts: 20mph
Location:  39.41°N, 105.32°W
Report Text: K4BM 200754Z AUTO 30010G17KT 280V020 10SM SCT100 M06/M13 A3009 RMK AO2
Loading
Personal Weather Stations






























Interactive Weather Map New forecast layout! Learn more

10-Day Weather Forecast

Advertisements
Track Severe Weather on mobile